createdAt,value
2018-04-24T00:01:56.060Z,17.61
2018-04-24T00:04:26.415Z,17.50
2018-04-24T00:06:58.676Z,17.52
2018-04-24T00:09:28.866Z,17.72
2018-04-24T00:11:59.962Z,17.92
2018-04-24T00:14:32.581Z,17.96
2018-04-24T00:17:07.853Z,17.94
2018-04-24T00:19:40.455Z,17.89
2018-04-24T00:22:11.833Z,17.81
2018-04-24T00:24:44.542Z,17.72
2018-04-24T00:27:14.998Z,17.69
2018-04-24T00:29:46.261Z,17.65
2018-04-24T00:32:17.648Z,17.74
2018-04-24T00:34:48.975Z,17.58
2018-04-24T00:37:20.287Z,17.62
2018-04-24T00:39:52.309Z,17.54
2018-04-24T00:42:23.685Z,17.50
2018-04-24T00:44:55.989Z,17.40
2018-04-24T00:47:28.260Z,17.30
2018-04-24T00:50:00.637Z,17.22
2018-04-24T00:52:30.842Z,17.11
2018-04-24T00:55:01.200Z,17.01
2018-04-24T00:57:31.741Z,17.03
2018-04-24T01:00:03.910Z,17.14
2018-04-24T01:02:35.947Z,17.33
2018-04-24T01:05:07.560Z,17.28
2018-04-24T01:07:38.884Z,17.41
2018-04-24T01:10:09.349Z,17.51
2018-04-24T01:12:40.664Z,17.35
2018-04-24T01:15:16.658Z,17.46
2018-04-24T01:17:47.932Z,17.37
2018-04-24T01:20:19.259Z,17.51
2018-04-24T01:22:50.731Z,17.61
2018-04-24T01:25:21.787Z,17.47
2018-04-24T01:27:53.130Z,17.54
2018-04-24T01:30:23.314Z,17.47
2018-04-24T01:32:53.882Z,17.26
2018-04-24T01:35:25.160Z,17.14
2018-04-24T01:37:57.449Z,17.16
2018-04-24T01:40:27.844Z,17.09
2018-04-24T01:42:59.831Z,16.82
2018-04-24T01:45:30.568Z,16.70
2018-04-24T01:48:02.978Z,16.71
2018-04-24T01:50:33.387Z,16.72
2018-04-24T01:53:05.596Z,16.70
2018-04-24T01:55:35.992Z,16.79
2018-04-24T01:58:07.345Z,16.85
2018-04-24T02:00:39.654Z,16.76
2018-04-24T02:03:11.561Z,16.72
2018-04-24T02:05:41.691Z,16.54
2018-04-24T02:08:12.201Z,16.38
2018-04-24T02:10:44.465Z,16.45
2018-04-24T02:13:14.937Z,16.41
2018-04-24T02:15:45.143Z,16.28
2018-04-24T02:18:17.410Z,16.18
2018-04-24T02:20:47.776Z,16.20
2018-04-24T02:23:19.437Z,16.20
2018-04-24T02:25:50.846Z,16.28
2018-04-24T02:28:21.367Z,16.15
2018-04-24T02:30:53.759Z,16.13
2018-04-24T02:33:26.087Z,16.01
2018-04-24T02:35:58.304Z,16.11
2018-04-24T02:38:28.784Z,16.08
2018-04-24T02:41:00.374Z,16.06
2018-04-24T02:43:31.207Z,15.90
2018-04-24T02:46:03.178Z,15.93
2018-04-24T02:48:33.593Z,15.92
2018-04-24T02:51:06.257Z,15.83
2018-04-24T02:53:39.367Z,15.83
2018-04-24T02:56:12.501Z,15.77
2018-04-24T02:58:43.306Z,15.64
2018-04-24T03:01:14.974Z,15.52
2018-04-24T03:03:45.447Z,15.48
2018-04-24T03:06:16.511Z,15.31
2018-04-24T03:08:47.018Z,15.26
2018-04-24T03:11:18.824Z,15.18
2018-04-24T03:13:51.016Z,14.93
2018-04-24T03:16:22.198Z,15.00
2018-04-24T03:18:52.949Z,15.05
2018-04-24T03:21:25.296Z,15.09
2018-04-24T03:23:57.871Z,15.08
2018-04-24T03:26:28.270Z,15.15
2018-04-24T03:28:58.882Z,15.20
2018-04-24T03:31:30.592Z,15.11
2018-04-24T03:34:03.206Z,15.15
2018-04-24T03:36:35.470Z,15.15
2018-04-24T03:39:08.206Z,15.16
2018-04-24T03:41:47.238Z,15.20
2018-04-24T03:44:20.033Z,15.27
2018-04-24T03:46:52.666Z,15.16
2018-04-24T03:49:23.859Z,15.18
2018-04-24T03:51:55.281Z,15.21
2018-04-24T03:54:26.743Z,15.19
2018-04-24T03:56:58.019Z,15.15
2018-04-24T03:59:29.675Z,15.19
2018-04-24T04:02:01.094Z,15.22
2018-04-24T04:04:32.400Z,15.20
2018-04-24T04:07:02.781Z,15.05
2018-04-24T04:09:34.040Z,15.10
2018-04-24T04:12:05.668Z,15.17
2018-04-24T04:14:36.918Z,15.22
2018-04-24T04:17:16.923Z,15.25
2018-04-24T04:20:57.511Z,15.24
2018-04-24T04:24:37.642Z,15.14
2018-04-24T04:27:09.844Z,15.09
2018-04-24T04:29:41.119Z,15.08
2018-04-24T04:32:13.498Z,15.16
2018-04-24T04:34:45.804Z,15.18
2018-04-24T04:37:20.112Z,15.25
2018-04-24T04:39:51.729Z,15.27
2018-04-24T04:42:23.060Z,15.21
2018-04-24T04:44:55.942Z,15.28
2018-04-24T04:47:26.431Z,15.22
2018-04-24T04:49:58.868Z,15.34
2018-04-24T04:52:30.246Z,15.45
2018-04-24T04:55:00.844Z,15.49
2018-04-24T04:57:31.572Z,15.67
2018-04-24T05:00:04.575Z,16.03
2018-04-24T05:02:35.357Z,16.28
2018-04-24T05:05:06.112Z,16.47
2018-04-24T05:07:37.518Z,16.68
2018-04-24T05:10:08.566Z,16.91
2018-04-24T05:12:39.871Z,17.01
2018-04-24T05:15:10.297Z,17.15
2018-04-24T05:17:43.251Z,17.34
2018-04-24T05:20:15.502Z,17.38
2018-04-24T05:22:47.211Z,17.51
2018-04-24T05:25:18.973Z,17.29
2018-04-24T05:27:49.454Z,17.37
2018-04-24T05:30:20.875Z,17.75
2018-04-24T05:32:53.304Z,17.91
2018-04-24T05:35:23.732Z,18.16
2018-04-24T05:37:55.294Z,18.34
2018-04-24T05:40:26.899Z,18.46
2018-04-24T05:42:59.343Z,18.48
2018-04-24T05:45:31.587Z,18.35
2018-04-24T05:48:08.298Z,18.53
2018-04-24T05:50:38.760Z,18.60
2018-04-24T05:53:10.818Z,18.88
2018-04-24T05:55:41.285Z,18.93
2018-04-24T05:58:11.767Z,18.56
2018-04-24T06:00:43.146Z,18.61
2018-04-24T06:03:13.846Z,18.58
2018-04-24T06:05:44.320Z,18.54
2018-04-24T06:08:16.127Z,18.40
2018-04-24T06:10:48.881Z,18.37
2018-04-24T06:13:20.262Z,18.42
2018-04-24T06:15:50.858Z,18.38
2018-04-24T06:18:21.461Z,18.66
2018-04-24T06:20:51.942Z,18.68
2018-04-24T06:23:22.712Z,18.71
2018-04-24T06:25:54.411Z,18.61
2018-04-24T06:28:26.812Z,18.65
2018-04-24T06:30:59.122Z,18.59
2018-04-24T06:33:29.684Z,18.68
2018-04-24T06:36:00.178Z,18.75
2018-04-24T06:38:32.525Z,18.96
2018-04-24T06:41:05.106Z,18.88
2018-04-24T06:43:41.690Z,18.77
2018-04-24T06:46:16.071Z,18.99
2018-04-24T06:48:46.617Z,18.69
2018-04-24T06:51:18.485Z,18.80
2018-04-24T06:53:50.727Z,18.93
2018-04-24T06:56:23.779Z,19.08
2018-04-24T06:58:54.841Z,18.95
2018-04-24T07:01:28.052Z,19.07
2018-04-24T07:03:58.665Z,18.93
2018-04-24T07:06:30.236Z,18.94
2018-04-24T07:09:02.117Z,19.42
2018-04-24T07:11:33.519Z,19.76
2018-04-24T07:14:04.125Z,19.86
2018-04-24T07:16:36.539Z,19.99
2018-04-24T07:19:07.771Z,20.05
2018-04-24T07:21:38.295Z,20.15
2018-04-24T07:24:09.699Z,20.36
2018-04-24T07:26:40.395Z,20.45
2018-04-24T07:29:11.860Z,19.97
2018-04-24T07:31:44.289Z,19.96
2018-04-24T07:34:16.939Z,20.41
2018-04-24T07:36:50.462Z,20.66
2018-04-24T07:39:22.939Z,20.40
2018-04-24T07:41:54.789Z,20.79
2018-04-24T07:44:27.641Z,20.71
2018-04-24T07:46:58.143Z,20.95
2018-04-24T07:49:32.671Z,21.28
2018-04-24T07:52:03.347Z,21.13
2018-04-24T07:54:39.533Z,20.90
2018-04-24T07:57:12.788Z,21.25
2018-04-24T07:59:44.603Z,21.09
2018-04-24T08:02:15.051Z,20.92
2018-04-24T08:04:48.025Z,21.00
2018-04-24T08:07:20.738Z,21.10
2018-04-24T08:09:51.164Z,21.16
2018-04-24T08:12:23.582Z,21.27
2018-04-24T08:14:55.290Z,21.64
2018-04-24T08:17:25.764Z,21.60
2018-04-24T08:19:57.147Z,22.08
2018-04-24T08:22:39.574Z,21.96
2018-04-24T08:25:10.909Z,22.04
2018-04-24T08:27:43.569Z,22.03
2018-04-24T08:30:16.788Z,22.14
2018-04-24T08:32:48.695Z,22.11
2018-04-24T08:35:20.091Z,21.81
2018-04-24T08:37:51.250Z,21.55
2018-04-24T08:40:23.030Z,21.67
2018-04-24T08:42:54.826Z,21.69
2018-04-24T08:45:26.467Z,21.84
2018-04-24T08:47:57.991Z,21.62
2018-04-24T08:50:29.501Z,21.33
2018-04-24T08:53:02.291Z,21.39
2018-04-24T08:55:34.538Z,21.74
2018-04-24T08:58:05.969Z,21.61
2018-04-24T09:00:37.294Z,21.73
2018-04-24T09:03:08.727Z,21.83
2018-04-24T09:05:42.440Z,22.25
2018-04-24T09:08:13.997Z,22.12
2018-04-24T09:10:45.284Z,22.21
2018-04-24T09:13:16.997Z,22.35
2018-04-24T09:15:48.867Z,22.21
2018-04-24T09:18:26.687Z,21.87
2018-04-24T09:20:58.411Z,22.06
2018-04-24T09:23:29.804Z,22.38
2018-04-24T09:26:03.314Z,22.67
2018-04-24T09:28:35.047Z,22.97
2018-04-24T09:31:06.488Z,22.63
2018-04-24T09:33:37.773Z,22.03
2018-04-24T09:36:09.914Z,22.37
2018-04-24T09:38:41.356Z,22.31
2018-04-24T09:41:12.774Z,22.73
2018-04-24T09:43:44.087Z,22.93
2018-04-24T09:46:14.710Z,23.34
2018-04-24T09:48:46.456Z,23.40
2018-04-24T09:51:18.072Z,23.43
2018-04-24T09:53:49.421Z,23.23
2018-04-24T09:56:21.800Z,22.85
2018-04-24T09:58:53.371Z,23.12
2018-04-24T10:01:26.912Z,23.54
2018-04-24T10:03:59.343Z,23.90
2018-04-24T10:06:30.251Z,23.64
2018-04-24T10:09:14.887Z,22.98
2018-04-24T10:11:47.043Z,22.98
2018-04-24T10:14:18.365Z,23.03
2018-04-24T10:16:48.849Z,23.04
2018-04-24T10:19:20.711Z,23.14
2018-04-24T10:21:52.473Z,23.36
2018-04-24T10:24:22.894Z,22.92
2018-04-24T10:26:55.683Z,23.06
2018-04-24T10:29:27.561Z,23.64
2018-04-24T10:31:59.258Z,24.06
2018-04-24T10:34:32.057Z,24.23
2018-04-24T10:37:03.390Z,24.19
2018-04-24T10:39:34.958Z,23.68
2018-04-24T10:42:07.583Z,23.46
2018-04-24T10:44:38.976Z,23.67
2018-04-24T10:47:10.590Z,24.30
2018-04-24T10:49:41.878Z,24.60
2018-04-24T10:52:13.264Z,25.17
2018-04-24T10:54:44.866Z,25.69
2018-04-24T10:57:17.006Z,25.46
2018-04-24T10:59:48.320Z,25.12
2018-04-24T11:02:19.971Z,24.84
2018-04-24T11:04:51.325Z,25.21
2018-04-24T11:07:24.226Z,24.82
2018-04-24T11:09:55.574Z,25.12
2018-04-24T11:12:26.855Z,25.36
2018-04-24T11:14:57.376Z,25.18
2018-04-24T11:17:28.857Z,25.25
2018-04-24T11:20:00.409Z,25.03
2018-04-24T11:22:32.140Z,25.16
2018-04-24T11:25:10.993Z,25.44
2018-04-24T11:27:43.232Z,25.65
2018-04-24T11:30:16.078Z,25.91
2018-04-24T11:32:50.050Z,26.03
2018-04-24T11:35:21.575Z,26.38
2018-04-24T11:38:28.765Z,26.15
2018-04-24T11:41:05.457Z,26.16
2018-04-24T11:43:51.043Z,26.49
2018-04-24T11:46:26.569Z,27.03
2018-04-24T11:49:00.213Z,26.84
2018-04-24T11:51:35.497Z,26.78
2018-04-24T11:54:08.204Z,26.92
2018-04-24T11:56:42.163Z,27.31
2018-04-24T11:59:16.235Z,27.43
2018-04-24T12:01:48.498Z,27.14
2018-04-24T12:04:22.995Z,27.04
2018-04-24T12:06:55.783Z,27.15
2018-04-24T12:09:29.207Z,27.17
2018-04-24T12:12:04.672Z,27.19
2018-04-24T12:14:39.044Z,27.21
2018-04-24T12:17:10.614Z,27.36
2018-04-24T12:19:43.274Z,26.94
2018-04-24T12:22:16.554Z,26.92
2018-04-24T12:24:49.021Z,26.81
2018-04-24T12:27:22.147Z,27.15
2018-04-24T12:29:55.725Z,27.02
2018-04-24T12:32:27.180Z,26.87
2018-04-24T12:34:58.753Z,26.83
2018-04-24T12:37:33.386Z,26.72
2018-04-24T12:40:09.471Z,26.94
2018-04-24T12:42:42.425Z,27.12
2018-04-24T12:45:16.634Z,26.65
2018-04-24T12:47:50.098Z,26.53
2018-04-24T12:50:22.558Z,27.04
2018-04-24T12:52:54.779Z,27.39
2018-04-24T12:55:26.579Z,27.55
2018-04-24T12:57:59.809Z,27.28
2018-04-24T13:00:32.851Z,27.12
2018-04-24T13:03:06.081Z,27.62
2018-04-24T13:05:38.582Z,28.04
2018-04-24T13:08:11.987Z,28.04
2018-04-24T13:10:44.611Z,28.10
2018-04-24T13:13:17.914Z,27.98
2018-04-24T13:15:53.122Z,27.91
2018-04-24T13:18:25.309Z,27.77
2018-04-24T13:20:57.923Z,28.11
2018-04-24T13:23:31.117Z,28.08
2018-04-24T13:26:04.473Z,28.24
2018-04-24T13:28:37.623Z,28.30
2018-04-24T13:31:11.405Z,27.95
2018-04-24T13:33:44.713Z,28.06
2018-04-24T13:36:21.762Z,28.25
2018-04-24T13:38:55.312Z,28.19
2018-04-24T13:41:29.866Z,28.28
2018-04-24T13:44:01.321Z,28.69
2018-04-24T13:46:33.859Z,28.77
2018-04-24T13:49:07.020Z,28.80
2018-04-24T13:51:41.587Z,28.76
2018-04-24T13:54:14.741Z,28.85
2018-04-24T13:56:49.281Z,28.61
2018-04-24T13:59:21.543Z,28.63
2018-04-24T14:01:55.023Z,28.89
2018-04-24T14:04:28.257Z,29.42
2018-04-24T14:07:01.973Z,29.50
2018-04-24T14:09:34.850Z,29.85
2018-04-24T14:12:08.533Z,29.71
2018-04-24T14:14:42.581Z,29.81
2018-04-24T14:17:16.731Z,30.13
2018-04-24T14:19:48.659Z,29.85
2018-04-24T14:22:23.870Z,30.19
2018-04-24T14:24:56.491Z,30.14
2018-04-24T14:27:30.446Z,30.47
2018-04-24T14:30:05.063Z,30.13
2018-04-24T14:32:38.615Z,29.96
2018-04-24T14:35:11.874Z,30.24
2018-04-24T14:37:45.352Z,30.20
2018-04-24T14:40:19.391Z,30.24
2018-04-24T14:42:52.833Z,29.87
2018-04-24T14:45:25.782Z,30.12
2018-04-24T14:47:58.077Z,30.29
2018-04-24T14:50:31.216Z,30.29
2018-04-24T14:53:05.677Z,30.12
2018-04-24T14:55:38.846Z,29.50
2018-04-24T14:58:10.695Z,29.45
2018-04-24T15:00:44.466Z,29.36
2018-04-24T15:03:17.940Z,29.32
2018-04-24T15:05:50.120Z,29.12
2018-04-24T15:08:23.332Z,29.06
2018-04-24T15:11:00.096Z,28.80
2018-04-24T15:13:33.977Z,28.72
2018-04-24T15:16:08.680Z,28.65
2018-04-24T15:18:40.942Z,28.64
2018-04-24T15:21:14.488Z,28.64
2018-04-24T15:23:48.585Z,28.13
2018-04-24T15:26:21.988Z,28.44
2018-04-24T15:28:55.159Z,28.30
2018-04-24T15:31:29.632Z,28.22
2018-04-24T15:34:01.789Z,27.77
2018-04-24T15:36:35.236Z,27.87
2018-04-24T15:39:09.168Z,27.63
2018-04-24T15:41:42.643Z,27.38
2018-04-24T15:44:15.916Z,27.60
2018-04-24T15:46:49.358Z,27.41
2018-04-24T15:49:22.561Z,27.20
2018-04-24T15:55:12.633Z,27.17
2018-04-24T16:00:52.675Z,26.73
2018-04-24T16:03:25.847Z,26.97
2018-04-24T16:05:59.450Z,26.97
2018-04-24T16:08:32.772Z,26.71
2018-04-24T16:11:05.999Z,26.79
2018-04-24T16:13:39.278Z,26.45
2018-04-24T16:16:11.798Z,26.10
2018-04-24T16:18:44.411Z,26.14
2018-04-24T16:21:17.624Z,26.22
2018-04-24T16:23:50.402Z,26.25
2018-04-24T16:26:23.252Z,26.13
2018-04-24T16:28:54.862Z,25.95
2018-04-24T16:31:28.116Z,25.87
2018-04-24T16:37:01.023Z,25.77
2018-04-24T16:39:34.381Z,25.65
2018-04-24T16:42:06.602Z,25.63
2018-04-24T16:44:38.907Z,25.55
2018-04-24T16:47:13.247Z,25.72
2018-04-24T16:49:44.578Z,25.79
2018-04-24T16:52:16.128Z,25.72
2018-04-24T16:54:50.909Z,25.64
2018-04-24T16:57:24.447Z,25.57
2018-04-24T16:59:56.867Z,25.64
2018-04-24T17:02:28.379Z,25.37
2018-04-24T17:05:00.978Z,25.52
2018-04-24T17:07:34.215Z,25.66
2018-04-24T17:10:06.051Z,25.60
2018-04-24T17:12:39.354Z,25.49
2018-04-24T17:15:14.125Z,25.47
2018-04-24T17:17:47.363Z,25.28
2018-04-24T17:20:22.759Z,25.16
2018-04-24T17:22:56.062Z,25.13
2018-04-24T17:25:28.070Z,25.31
2018-04-24T17:28:00.403Z,25.26
2018-04-24T17:30:33.061Z,25.35
2018-04-24T17:33:07.086Z,25.29
2018-04-24T17:35:38.779Z,25.22
2018-04-24T17:38:11.127Z,24.97
2018-04-24T17:40:43.393Z,24.82
2018-04-24T17:43:16.672Z,24.79
2018-04-24T17:45:48.864Z,24.70
2018-04-24T17:48:22.436Z,24.70
2018-04-24T17:50:55.611Z,24.85
2018-04-24T17:53:29.483Z,24.76
2018-04-24T17:56:03.285Z,24.53
2018-04-24T17:58:34.442Z,24.47
2018-04-24T18:01:06.100Z,24.35
2018-04-24T18:03:37.801Z,24.17
2018-04-24T18:06:10.951Z,24.06
2018-04-24T18:08:43.288Z,24.02
2018-04-24T18:11:15.531Z,23.83
2018-04-24T18:13:49.574Z,23.87
2018-04-24T18:16:21.871Z,23.81
2018-04-24T18:18:54.171Z,23.75
2018-04-24T18:21:25.724Z,23.60
2018-04-24T18:23:59.681Z,23.63
2018-04-24T18:26:31.730Z,23.53
2018-04-24T18:29:03.184Z,23.39
2018-04-24T18:31:36.222Z,23.27
2018-04-24T18:34:08.735Z,23.21
2018-04-24T18:36:41.070Z,23.16
2018-04-24T18:39:14.225Z,23.01
2018-04-24T18:41:47.527Z,22.96
2018-04-24T18:44:18.987Z,22.94
2018-04-24T18:46:53.221Z,22.91
2018-04-24T18:49:25.451Z,22.80
2018-04-24T18:51:59.046Z,22.81
2018-04-24T18:54:30.448Z,22.78
2018-04-24T18:57:02.295Z,22.62
2018-04-24T18:59:34.096Z,22.59
2018-04-24T19:02:06.333Z,22.56
2018-04-24T19:04:40.647Z,22.49
2018-04-24T19:07:12.919Z,22.27
2018-04-24T19:09:44.807Z,22.32
2018-04-24T19:12:17.016Z,22.26
2018-04-24T19:14:49.443Z,22.19
2018-04-24T19:17:23.759Z,22.03
2018-04-24T19:19:56.015Z,21.78
2018-04-24T19:22:27.341Z,21.82
2018-04-24T19:25:03.285Z,21.71
2018-04-24T19:27:34.898Z,21.64
2018-04-24T19:30:07.247Z,21.53
2018-04-24T19:32:39.497Z,21.51
2018-04-24T19:35:10.819Z,21.43
2018-04-24T19:37:43.165Z,21.43
2018-04-24T19:42:25.388Z,21.38
2018-04-24T19:44:57.358Z,21.17
2018-04-24T19:47:28.968Z,21.37
2018-04-24T19:50:06.226Z,21.39
2018-04-24T19:52:38.899Z,21.30
2018-04-24T19:55:15.192Z,21.37
2018-04-24T19:57:46.518Z,21.41
2018-04-24T20:00:17.987Z,21.39
2018-04-24T20:02:50.794Z,21.34
2018-04-24T20:05:22.201Z,21.38
2018-04-24T20:07:54.656Z,21.38
2018-04-24T20:10:26.222Z,21.41
2018-04-24T20:12:58.551Z,21.42
2018-04-24T20:15:30.807Z,21.39
2018-04-24T20:18:03.957Z,21.20
2018-04-24T20:20:35.270Z,21.23
2018-04-24T20:23:06.913Z,21.07
2018-04-24T20:25:39.213Z,21.09
2018-04-24T20:28:11.706Z,20.98
2018-04-24T20:30:43.995Z,21.03
2018-04-24T20:33:16.269Z,20.95
2018-04-24T20:35:48.606Z,21.07
2018-04-24T20:38:20.855Z,21.07
2018-04-24T20:40:53.390Z,21.00
2018-04-24T20:43:25.651Z,21.02
2018-04-24T20:45:57.202Z,20.96
2018-04-24T20:48:28.658Z,20.97
2018-04-24T20:51:00.696Z,20.95
2018-04-24T20:53:33.079Z,20.90
2018-04-24T20:56:06.409Z,20.80
2018-04-24T20:58:37.791Z,20.70
2018-04-24T21:01:10.014Z,20.61
2018-04-24T21:03:42.942Z,20.53
2018-04-24T21:06:14.515Z,20.37
2018-04-24T21:08:45.647Z,20.22
2018-04-24T21:11:17.052Z,20.22
2018-04-24T21:13:49.478Z,20.05
2018-04-24T21:16:21.083Z,19.99
2018-04-24T21:18:53.222Z,19.93
2018-04-24T21:21:23.690Z,19.88
2018-04-24T21:23:56.166Z,19.92
2018-04-24T21:26:28.378Z,19.85
2018-04-24T21:28:59.766Z,19.85
2018-04-24T21:31:32.463Z,19.82
2018-04-24T21:34:03.866Z,19.73
2018-04-24T21:36:35.219Z,19.67
2018-04-24T21:39:07.341Z,19.68
2018-04-24T21:41:39.673Z,19.63
2018-04-24T21:44:11.506Z,19.51
2018-04-24T21:46:42.928Z,19.23
2018-04-24T21:49:14.611Z,19.14
2018-04-24T21:51:45.967Z,19.13
2018-04-24T21:54:18.666Z,19.07
2018-04-24T21:56:50.936Z,19.07
2018-04-24T21:59:22.275Z,18.98
2018-04-24T22:01:56.115Z,18.94
2018-04-24T22:04:27.512Z,18.92
2018-04-24T22:06:58.940Z,19.09
2018-04-24T22:09:30.301Z,19.12
2018-04-24T22:12:01.631Z,19.25
2018-04-24T22:14:33.431Z,19.33
2018-04-24T22:17:05.673Z,19.42
2018-04-24T22:19:38.247Z,19.31
2018-04-24T22:22:12.737Z,19.32
2018-04-24T22:24:45.362Z,19.31
2018-04-24T22:27:16.939Z,19.21
2018-04-24T22:29:49.224Z,19.06
2018-04-24T22:32:20.888Z,18.93
2018-04-24T22:34:52.435Z,19.01
2018-04-24T22:37:24.646Z,18.92
2018-04-24T22:39:56.842Z,18.98
2018-04-24T22:42:28.207Z,18.87
2018-04-24T22:44:59.811Z,18.75
2018-04-24T22:47:31.271Z,18.76
2018-04-24T22:50:03.549Z,18.69
2018-04-24T22:52:35.256Z,18.73
2018-04-24T22:55:06.558Z,18.71
2018-04-24T22:57:38.660Z,18.56
2018-04-24T23:00:10.306Z,18.50
2018-04-24T23:02:41.146Z,18.42
2018-04-24T23:05:12.571Z,18.58
2018-04-24T23:07:45.715Z,18.72
2018-04-24T23:10:29.191Z,18.70
2018-04-24T23:13:17.387Z,18.80
2018-04-24T23:16:05.725Z,18.76
2018-04-24T23:18:54.648Z,18.70
2018-04-24T23:21:31.279Z,18.69
2018-04-24T23:24:03.334Z,18.72
2018-04-24T23:26:34.727Z,18.56
2018-04-24T23:29:09.591Z,18.66
2018-04-24T23:31:40.974Z,18.57
2018-04-24T23:34:12.471Z,18.40
2018-04-24T23:36:43.925Z,18.40
2018-04-24T23:39:18.370Z,18.40
2018-04-24T23:41:50.298Z,18.32
2018-04-24T23:44:21.539Z,18.28
2018-04-24T23:46:52.854Z,18.05
2018-04-24T23:49:24.557Z,17.86
2018-04-24T23:51:55.882Z,17.84
2018-04-24T23:54:27.190Z,17.72
2018-04-24T23:56:58.963Z,17.64
2018-04-24T23:59:31.193Z,17.57
